SWA3707 KLAS-KLAX
Flight info
| Callsign | SWA3707 |
|---|---|
| Flight time | 0h 38m |
| Altitude | 28000 |
| Route | RADYR2 BLAQQ SHTNR ANJLL4 |
| Aircraft | B737/M-SDE2E3FGHIRWXY/LB1 |
Departure
| Time | 2026-05-06 17:14 |
|---|---|
| Airport | Harry Reid International Airport (KLAS) |
Arrival
| Time | 2026-05-06 17:53 |
|---|---|
| Airport | Los Angeles International Airport (KLAX) |
| Time | Latitude | Longitude | Altitude | Speed | Heading |
|---|---|---|---|---|---|
| 2026-05-06 16:52 | 36.08230 | -115.15101 | 2115 ft | 0 kts | 14° |
| 2026-05-06 17:05 | 36.08226 | -115.15102 | 2115 ft | 2 kts | 14° |
| 2026-05-06 17:06 | 36.08211 | -115.15106 | 2116 ft | 2 kts | 14° |
| 2026-05-06 17:06 | 36.08197 | -115.15111 | 2116 ft | 2 kts | 14° |
| 2026-05-06 17:06 | 36.08182 | -115.15115 | 2117 ft | 2 kts | 14° |
| 2026-05-06 17:06 | 36.08167 | -115.15120 | 2117 ft | 2 kts | 14° |
| 2026-05-06 17:07 | 36.08161 | -115.15121 | 2117 ft | 0 kts | 14° |
| 2026-05-06 17:07 | 36.08162 | -115.15121 | 2117 ft | 0 kts | 14° |
| 2026-05-06 17:08 | 36.08167 | -115.15115 | 2117 ft | 2 kts | 72° |
| 2026-05-06 17:09 | 36.08150 | -115.15091 | 2117 ft | 4 kts | 144° |
| 2026-05-06 17:09 | 36.08117 | -115.15067 | 2116 ft | 6 kts | 150° |
| 2026-05-06 17:09 | 36.08058 | -115.15040 | 2116 ft | 9 kts | 173° |
| 2026-05-06 17:09 | 36.08002 | -115.15011 | 2116 ft | 9 kts | 150° |
| 2026-05-06 17:10 | 36.07945 | -115.14969 | 2116 ft | 9 kts | 148° |
| 2026-05-06 17:10 | 36.07886 | -115.14922 | 2115 ft | 10 kts | 143° |
| 2026-05-06 17:10 | 36.07858 | -115.14806 | 2112 ft | 22 kts | 94° |
| 2026-05-06 17:10 | 36.07844 | -115.14597 | 2107 ft | 25 kts | 95° |
| 2026-05-06 17:11 | 36.07826 | -115.14365 | 2098 ft | 29 kts | 95° |
| 2026-05-06 17:11 | 36.07825 | -115.14108 | 2092 ft | 31 kts | 90° |
| 2026-05-06 17:11 | 36.07825 | -115.13830 | 2084 ft | 33 kts | 90° |
| 2026-05-06 17:11 | 36.07826 | -115.13538 | 2076 ft | 35 kts | 90° |
| 2026-05-06 17:12 | 36.07827 | -115.13223 | 2067 ft | 37 kts | 90° |
| 2026-05-06 17:12 | 36.07828 | -115.12890 | 2057 ft | 39 kts | 90° |
| 2026-05-06 17:12 | 36.07827 | -115.12561 | 2051 ft | 37 kts | 89° |
| 2026-05-06 17:12 | 36.07824 | -115.12276 | 2045 ft | 21 kts | 99° |
| 2026-05-06 17:13 | 36.07731 | -115.12136 | 2045 ft | 21 kts | 156° |
| 2026-05-06 17:13 | 36.07643 | -115.12209 | 2047 ft | 18 kts | 272° |
| 2026-05-06 17:13 | 36.07643 | -115.12447 | 2052 ft | 54 kts | 269° |
| 2026-05-06 17:13 | 36.07641 | -115.13251 | 2071 ft | 129 kts | 270° |
| 2026-05-06 17:14 | 36.07648 | -115.14581 | 2279 ft | 171 kts | 271° |
| 2026-05-06 17:14 | 36.07681 | -115.16073 | 3004 ft | 182 kts | 271° |
| 2026-05-06 17:14 | 36.07677 | -115.17660 | 3705 ft | 189 kts | 269° |
| 2026-05-06 17:14 | 36.07648 | -115.19327 | 4277 ft | 202 kts | 270° |
| 2026-05-06 17:15 | 36.07580 | -115.21117 | 4819 ft | 217 kts | 265° |
| 2026-05-06 17:15 | 36.07333 | -115.23003 | 5331 ft | 234 kts | 260° |
| 2026-05-06 17:15 | 36.06747 | -115.24958 | 5869 ft | 254 kts | 240° |
| 2026-05-06 17:15 | 36.05467 | -115.26499 | 6573 ft | 267 kts | 212° |
| 2026-05-06 17:16 | 36.03746 | -115.27422 | 7394 ft | 272 kts | 201° |
| 2026-05-06 17:16 | 36.01920 | -115.28217 | 7905 ft | 278 kts | 200° |
| 2026-05-06 17:16 | 36.00035 | -115.29036 | 8413 ft | 292 kts | 199° |
| 2026-05-06 17:16 | 35.98016 | -115.29744 | 8960 ft | 308 kts | 193° |
| 2026-05-06 17:17 | 35.95888 | -115.30296 | 9627 ft | 317 kts | 191° |
| 2026-05-06 17:17 | 35.93718 | -115.30800 | 10482 ft | 318 kts | 190° |
| 2026-05-06 17:17 | 35.91528 | -115.31307 | 11221 ft | 323 kts | 190° |
| 2026-05-06 17:17 | 35.89308 | -115.31835 | 12017 ft | 326 kts | 191° |
| 2026-05-06 17:18 | 35.87069 | -115.32377 | 12721 ft | 331 kts | 191° |
| 2026-05-06 17:18 | 35.84808 | -115.32928 | 13487 ft | 333 kts | 191° |
| 2026-05-06 17:18 | 35.82469 | -115.33502 | 14133 ft | 343 kts | 191° |
| 2026-05-06 17:18 | 35.80165 | -115.34068 | 15220 ft | 343 kts | 191° |
| 2026-05-06 17:19 | 35.77775 | -115.34656 | 16126 ft | 350 kts | 191° |
| 2026-05-06 17:19 | 35.75396 | -115.35240 | 16970 ft | 357 kts | 190° |
| 2026-05-06 17:19 | 35.72912 | -115.35847 | 17828 ft | 363 kts | 190° |
| 2026-05-06 17:19 | 35.70417 | -115.36457 | 18681 ft | 369 kts | 190° |
| 2026-05-06 17:20 | 35.67855 | -115.37082 | 19500 ft | 375 kts | 190° |
| 2026-05-06 17:20 | 35.65276 | -115.37711 | 20374 ft | 378 kts | 189° |
| 2026-05-06 17:20 | 35.62667 | -115.38308 | 21178 ft | 382 kts | 187° |
| 2026-05-06 17:20 | 35.60025 | -115.38689 | 21976 ft | 384 kts | 181° |
| 2026-05-06 17:21 | 35.57343 | -115.38726 | 22685 ft | 388 kts | 175° |
| 2026-05-06 17:21 | 35.54606 | -115.38554 | 23446 ft | 391 kts | 173° |
| 2026-05-06 17:21 | 35.51894 | -115.38313 | 24184 ft | 394 kts | 172° |
| 2026-05-06 17:21 | 35.49107 | -115.38055 | 24837 ft | 400 kts | 173° |
| 2026-05-06 17:22 | 35.46332 | -115.37862 | 25527 ft | 404 kts | 175° |
| 2026-05-06 17:22 | 35.43507 | -115.38062 | 26385 ft | 406 kts | 186° |
| 2026-05-06 17:22 | 35.40727 | -115.38890 | 27214 ft | 407 kts | 198° |
| 2026-05-06 17:22 | 35.38151 | -115.40269 | 27874 ft | 409 kts | 207° |
| 2026-05-06 17:23 | 35.35620 | -115.42007 | 28089 ft | 415 kts | 210° |
| 2026-05-06 17:23 | 35.30608 | -115.45692 | 28110 ft | 432 kts | 210° |
| 2026-05-06 17:23 | 35.27949 | -115.47578 | 28105 ft | 449 kts | 209° |
| 2026-05-06 17:24 | 35.25148 | -115.49496 | 28107 ft | 466 kts | 208° |
| 2026-05-06 17:24 | 35.22243 | -115.51433 | 28106 ft | 482 kts | 208° |
| 2026-05-06 17:24 | 35.19228 | -115.53406 | 28105 ft | 497 kts | 207° |
| 2026-05-06 17:24 | 35.16100 | -115.55487 | 28102 ft | 513 kts | 210° |
| 2026-05-06 17:25 | 35.13084 | -115.57883 | 28098 ft | 527 kts | 216° |
| 2026-05-06 17:25 | 35.07441 | -115.63785 | 28087 ft | 530 kts | 225° |
| 2026-05-06 17:26 | 35.02335 | -115.70203 | 28079 ft | 530 kts | 228° |
| 2026-05-06 17:26 | 34.97294 | -115.76833 | 28077 ft | 529 kts | 228° |
| 2026-05-06 17:27 | 34.92242 | -115.83440 | 28075 ft | 527 kts | 227° |
| 2026-05-06 17:27 | 34.87180 | -115.89963 | 28083 ft | 528 kts | 227° |
| 2026-05-06 17:28 | 34.82098 | -115.96442 | 28081 ft | 529 kts | 227° |
| 2026-05-06 17:28 | 34.76984 | -116.02919 | 28083 ft | 528 kts | 227° |
| 2026-05-06 17:29 | 34.71845 | -116.09441 | 28085 ft | 531 kts | 227° |
| 2026-05-06 17:29 | 34.66730 | -116.15951 | 28091 ft | 529 kts | 227° |
| 2026-05-06 17:30 | 34.61623 | -116.22445 | 28096 ft | 531 kts | 227° |
| 2026-05-06 17:30 | 34.56532 | -116.28904 | 28101 ft | 530 kts | 227° |
| 2026-05-06 17:31 | 34.51407 | -116.35391 | 28105 ft | 531 kts | 227° |
| 2026-05-06 17:31 | 34.46304 | -116.41862 | 28107 ft | 531 kts | 228° |
| 2026-05-06 17:32 | 34.41668 | -116.48859 | 28107 ft | 527 kts | 237° |
| 2026-05-06 17:32 | 34.39691 | -116.52612 | 27878 ft | 530 kts | 241° |
| 2026-05-06 17:32 | 34.37878 | -116.56484 | 27419 ft | 525 kts | 244° |
| 2026-05-06 17:32 | 34.36189 | -116.60403 | 26810 ft | 522 kts | 245° |
| 2026-05-06 17:33 | 34.34584 | -116.64298 | 26101 ft | 515 kts | 246° |
| 2026-05-06 17:33 | 34.33015 | -116.68185 | 25488 ft | 505 kts | 246° |
| 2026-05-06 17:33 | 34.31511 | -116.71976 | 24959 ft | 494 kts | 246° |
| 2026-05-06 17:33 | 34.30062 | -116.75662 | 24411 ft | 484 kts | 247° |
| 2026-05-06 17:34 | 34.28635 | -116.79293 | 23879 ft | 475 kts | 246° |
| 2026-05-06 17:34 | 34.27220 | -116.82882 | 23342 ft | 466 kts | 247° |
| 2026-05-06 17:34 | 34.25838 | -116.86370 | 22819 ft | 458 kts | 246° |
| 2026-05-06 17:34 | 34.24456 | -116.89839 | 22289 ft | 450 kts | 246° |
| 2026-05-06 17:35 | 34.23111 | -116.93205 | 21772 ft | 443 kts | 246° |
| 2026-05-06 17:35 | 34.21775 | -116.96536 | 21258 ft | 435 kts | 246° |
| 2026-05-06 17:35 | 34.20569 | -116.99835 | 20766 ft | 427 kts | 251° |
| 2026-05-06 17:36 | 34.18657 | -117.06500 | 19750 ft | 414 kts | 256° |
| 2026-05-06 17:36 | 34.17798 | -117.09824 | 19232 ft | 409 kts | 256° |
| 2026-05-06 17:36 | 34.16965 | -117.13074 | 18747 ft | 403 kts | 256° |
| 2026-05-06 17:36 | 34.16145 | -117.16267 | 18266 ft | 398 kts | 256° |
| 2026-05-06 17:37 | 34.15310 | -117.19461 | 17783 ft | 392 kts | 256° |
| 2026-05-06 17:37 | 34.14478 | -117.22582 | 17323 ft | 387 kts | 255° |
| 2026-05-06 17:37 | 34.13651 | -117.25639 | 16781 ft | 384 kts | 255° |
| 2026-05-06 17:37 | 34.12826 | -117.28653 | 16271 ft | 377 kts | 255° |
| 2026-05-06 17:38 | 34.12006 | -117.31632 | 15818 ft | 368 kts | 255° |
| 2026-05-06 17:38 | 34.11204 | -117.34536 | 15375 ft | 360 kts | 255° |
| 2026-05-06 17:38 | 34.10417 | -117.37390 | 14946 ft | 352 kts | 256° |
| 2026-05-06 17:38 | 34.09688 | -117.40154 | 14519 ft | 345 kts | 257° |
| 2026-05-06 17:39 | 34.09002 | -117.42901 | 14107 ft | 339 kts | 258° |
| 2026-05-06 17:39 | 34.08343 | -117.45583 | 13702 ft | 332 kts | 257° |
| 2026-05-06 17:39 | 34.07686 | -117.48260 | 13295 ft | 326 kts | 257° |
| 2026-05-06 17:39 | 34.07046 | -117.50844 | 12907 ft | 321 kts | 257° |
| 2026-05-06 17:40 | 34.06397 | -117.53430 | 12517 ft | 315 kts | 257° |
| 2026-05-06 17:40 | 34.05762 | -117.55925 | 12136 ft | 310 kts | 257° |
| 2026-05-06 17:40 | 34.05129 | -117.58403 | 11756 ft | 310 kts | 256° |
| 2026-05-06 17:40 | 34.04497 | -117.60873 | 11382 ft | 306 kts | 256° |
| 2026-05-06 17:41 | 34.03864 | -117.63341 | 11008 ft | 303 kts | 256° |
| 2026-05-06 17:41 | 34.03247 | -117.65747 | 10633 ft | 302 kts | 256° |
| 2026-05-06 17:41 | 34.02626 | -117.68169 | 10266 ft | 299 kts | 255° |
| 2026-05-06 17:41 | 34.02126 | -117.70559 | 9974 ft | 291 kts | 262° |
| 2026-05-06 17:42 | 34.01838 | -117.72956 | 9759 ft | 288 kts | 265° |
| 2026-05-06 17:42 | 34.01620 | -117.75371 | 9318 ft | 288 kts | 266° |
| 2026-05-06 17:42 | 34.01414 | -117.77735 | 8974 ft | 283 kts | 266° |
| 2026-05-06 17:42 | 34.01203 | -117.80077 | 8624 ft | 281 kts | 266° |
| 2026-05-06 17:43 | 34.00981 | -117.82426 | 8274 ft | 279 kts | 266° |
| 2026-05-06 17:43 | 34.00757 | -117.84745 | 7981 ft | 276 kts | 266° |
| 2026-05-06 17:43 | 34.00536 | -117.87038 | 7611 ft | 278 kts | 265° |
| 2026-05-06 17:43 | 34.00309 | -117.89364 | 7254 ft | 273 kts | 265° |
| 2026-05-06 17:44 | 34.00087 | -117.91631 | 6992 ft | 269 kts | 265° |
| 2026-05-06 17:44 | 33.99865 | -117.93887 | 6675 ft | 273 kts | 265° |
| 2026-05-06 17:44 | 33.99645 | -117.96139 | 6339 ft | 270 kts | 265° |
| 2026-05-06 17:44 | 33.99426 | -117.98368 | 6054 ft | 263 kts | 265° |
| 2026-05-06 17:45 | 33.99215 | -118.00502 | 5868 ft | 251 kts | 265° |
| 2026-05-06 17:45 | 33.99006 | -118.02576 | 5621 ft | 244 kts | 265° |
| 2026-05-06 17:45 | 33.98810 | -118.04555 | 5422 ft | 232 kts | 265° |
| 2026-05-06 17:45 | 33.98632 | -118.06424 | 5242 ft | 218 kts | 266° |
| 2026-05-06 17:46 | 33.98471 | -118.08180 | 5054 ft | 205 kts | 265° |
| 2026-05-06 17:46 | 33.98304 | -118.09837 | 4880 ft | 194 kts | 265° |
| 2026-05-06 17:46 | 33.98137 | -118.11394 | 4718 ft | 183 kts | 265° |
| 2026-05-06 17:46 | 33.98050 | -118.12883 | 4519 ft | 176 kts | 270° |
| 2026-05-06 17:47 | 33.97968 | -118.14336 | 4275 ft | 172 kts | 266° |
| 2026-05-06 17:47 | 33.97887 | -118.15762 | 4046 ft | 168 kts | 271° |
| 2026-05-06 17:47 | 33.97874 | -118.17148 | 3823 ft | 165 kts | 264° |
| 2026-05-06 17:47 | 33.97613 | -118.18471 | 3619 ft | 165 kts | 257° |
| 2026-05-06 17:48 | 33.97384 | -118.19811 | 3402 ft | 164 kts | 262° |
| 2026-05-06 17:48 | 33.97223 | -118.21185 | 3179 ft | 164 kts | 264° |
| 2026-05-06 17:48 | 33.97075 | -118.22524 | 2961 ft | 160 kts | 264° |
| 2026-05-06 17:48 | 33.96924 | -118.23850 | 2753 ft | 163 kts | 264° |
| 2026-05-06 17:49 | 33.96777 | -118.25158 | 2547 ft | 154 kts | 263° |
| 2026-05-06 17:49 | 33.96636 | -118.26413 | 2341 ft | 150 kts | 263° |
| 2026-05-06 17:49 | 33.96533 | -118.27647 | 2172 ft | 147 kts | 268° |
| 2026-05-06 17:49 | 33.96481 | -118.28874 | 1979 ft | 149 kts | 265° |
| 2026-05-06 17:50 | 33.96371 | -118.30082 | 1777 ft | 138 kts | 262° |
| 2026-05-06 17:50 | 33.96247 | -118.31181 | 1590 ft | 132 kts | 262° |
| 2026-05-06 17:50 | 33.96124 | -118.32275 | 1409 ft | 131 kts | 262° |
| 2026-05-06 17:50 | 33.96002 | -118.33357 | 1236 ft | 132 kts | 262° |
| 2026-05-06 17:51 | 33.95880 | -118.34445 | 1062 ft | 132 kts | 262° |
| 2026-05-06 17:51 | 33.95757 | -118.35537 | 890 ft | 132 kts | 262° |
| 2026-05-06 17:51 | 33.95634 | -118.36635 | 711 ft | 131 kts | 262° |
| 2026-05-06 17:51 | 33.95513 | -118.37710 | 542 ft | 132 kts | 262° |
| 2026-05-06 17:52 | 33.95379 | -118.38798 | 376 ft | 130 kts | 261° |
| 2026-05-06 17:52 | 33.95251 | -118.39883 | 218 ft | 131 kts | 262° |
| 2026-05-06 17:52 | 33.95133 | -118.40944 | 134 ft | 121 kts | 263° |
| 2026-05-06 17:52 | 33.95049 | -118.41760 | 126 ft | 68 kts | 262° |
| 2026-05-06 17:53 | 33.95006 | -118.42159 | 125 ft | 41 kts | 262° |
| 2026-05-06 17:53 | 33.94935 | -118.42380 | 123 ft | 22 kts | 231° |
| 2026-05-06 17:53 | 33.94854 | -118.42476 | 121 ft | 16 kts | 212° |
| 2026-05-06 17:53 | 33.94745 | -118.42485 | 120 ft | 16 kts | 174° |
| 2026-05-06 17:54 | 33.94665 | -118.42416 | 120 ft | 15 kts | 90° |
| 2026-05-06 17:54 | 33.94679 | -118.42291 | 121 ft | 14 kts | 82° |
| 2026-05-06 17:54 | 33.94690 | -118.42174 | 122 ft | 13 kts | 84° |
| 2026-05-06 17:54 | 33.94701 | -118.42065 | 123 ft | 13 kts | 83° |
| 2026-05-06 17:55 | 33.94717 | -118.41908 | 124 ft | 21 kts | 83° |
| 2026-05-06 17:55 | 33.94735 | -118.41736 | 125 ft | 20 kts | 83° |
| 2026-05-06 17:55 | 33.94751 | -118.41573 | 127 ft | 19 kts | 83° |
| 2026-05-06 17:55 | 33.94770 | -118.41425 | 128 ft | 18 kts | 74° |
| 2026-05-06 17:56 | 33.94794 | -118.41281 | 129 ft | 17 kts | 82° |
| 2026-05-06 17:56 | 33.94809 | -118.41146 | 129 ft | 16 kts | 83° |
| 2026-05-06 17:56 | 33.94821 | -118.41029 | 129 ft | 16 kts | 83° |
| 2026-05-06 17:56 | 33.94834 | -118.40903 | 129 ft | 15 kts | 83° |
| 2026-05-06 17:57 | 33.94846 | -118.40781 | 128 ft | 15 kts | 83° |
| 2026-05-06 17:57 | 33.94859 | -118.40662 | 127 ft | 16 kts | 83° |
| 2026-05-06 17:57 | 33.94871 | -118.40540 | 126 ft | 16 kts | 83° |
| 2026-05-06 17:57 | 33.94885 | -118.40411 | 125 ft | 17 kts | 83° |
| 2026-05-06 17:58 | 33.94868 | -118.40299 | 124 ft | 11 kts | 152° |
| 2026-05-06 17:58 | 33.94802 | -118.40269 | 126 ft | 6 kts | 164° |
| 2026-05-06 17:58 | 33.94772 | -118.40243 | 126 ft | 2 kts | 111° |
| 2026-05-06 17:58 | 33.94765 | -118.40215 | 126 ft | 3 kts | 108° |
| 2026-05-06 17:59 | 33.94761 | -118.40203 | 126 ft | 0 kts | 110° |
| 2026-05-06 17:59 | 33.94760 | -118.40198 | 126 ft | 0 kts | 110° |
| 2026-05-06 17:59 | 33.94759 | -118.40195 | 126 ft | 0 kts | 110° |
| 2026-05-06 17:59 | 33.94759 | -118.40194 | 126 ft | 0 kts | 110° |